sensor_id;sensor_type;location;lat;lon;timestamp;temperature;humidity
74178;DHT22;62540;48.456;-4.456;2024-03-06T00:02:09;8.26;68.30
74178;DHT22;62540;48.456;-4.456;2024-03-06T00:04:35;8.23;68.42
74178;DHT22;62540;48.456;-4.456;2024-03-06T00:07:00;8.24;68.50
74178;DHT22;62540;48.456;-4.456;2024-03-06T00:09:26;8.24;68.63
74178;DHT22;62540;48.456;-4.456;2024-03-06T00:11:53;8.27;68.69
74178;DHT22;62540;48.456;-4.456;2024-03-06T00:14:18;8.26;68.77
74178;DHT22;62540;48.456;-4.456;2024-03-06T00:16:45;8.26;69.07
74178;DHT22;62540;48.456;-4.456;2024-03-06T00:19:10;8.23;69.19
74178;DHT22;62540;48.456;-4.456;2024-03-06T00:21:36;8.26;69.22
74178;DHT22;62540;48.456;-4.456;2024-03-06T00:24:02;8.27;69.26
74178;DHT22;62540;48.456;-4.456;2024-03-06T00:26:29;8.30;69.31
74178;DHT22;62540;48.456;-4.456;2024-03-06T00:28:54;8.30;69.59
74178;DHT22;62540;48.456;-4.456;2024-03-06T00:31:19;8.27;69.55
74178;DHT22;62540;48.456;-4.456;2024-03-06T00:33:45;8.30;69.58
74178;DHT22;62540;48.456;-4.456;2024-03-06T00:36:10;8.33;69.56
74178;DHT22;62540;48.456;-4.456;2024-03-06T00:38:35;8.33;69.60
74178;DHT22;62540;48.456;-4.456;2024-03-06T00:41:01;8.38;69.59
74178;DHT22;62540;48.456;-4.456;2024-03-06T00:43:26;8.40;69.65
74178;DHT22;62540;48.456;-4.456;2024-03-06T00:45:51;8.44;69.66
74178;DHT22;62540;48.456;-4.456;2024-03-06T00:48:17;8.47;69.62
74178;DHT22;62540;48.456;-4.456;2024-03-06T00:50:45;8.48;69.56
74178;DHT22;62540;48.456;-4.456;2024-03-06T00:53:10;8.48;69.58
74178;DHT22;62540;48.456;-4.456;2024-03-06T00:55:36;8.51;69.60
74178;DHT22;62540;48.456;-4.456;2024-03-06T00:58:01;8.48;69.68
74178;DHT22;62540;48.456;-4.456;2024-03-06T01:00:27;8.50;69.72
74178;DHT22;62540;48.456;-4.456;2024-03-06T01:02:53;8.52;69.78
74178;DHT22;62540;48.456;-4.456;2024-03-06T01:05:18;8.51;69.77
74178;DHT22;62540;48.456;-4.456;2024-03-06T01:07:44;8.51;69.80
74178;DHT22;62540;48.456;-4.456;2024-03-06T01:10:09;8.55;69.74
74178;DHT22;62540;48.456;-4.456;2024-03-06T01:12:35;8.54;69.83
74178;DHT22;62540;48.456;-4.456;2024-03-06T01:15:01;8.55;69.86
74178;DHT22;62540;48.456;-4.456;2024-03-06T01:17:26;8.57;69.87
74178;DHT22;62540;48.456;-4.456;2024-03-06T01:19:51;8.54;69.95
74178;DHT22;62540;48.456;-4.456;2024-03-06T01:22:17;8.54;70.01
74178;DHT22;62540;48.456;-4.456;2024-03-06T01:24:43;8.54;70.12
74178;DHT22;62540;48.456;-4.456;2024-03-06T01:27:08;8.52;70.09
74178;DHT22;62540;48.456;-4.456;2024-03-06T01:29:34;8.50;70.48
74178;DHT22;62540;48.456;-4.456;2024-03-06T01:32:00;8.48;70.26
74178;DHT22;62540;48.456;-4.456;2024-03-06T01:34:27;8.45;70.58
74178;DHT22;62540;48.456;-4.456;2024-03-06T01:36:52;8.43;70.41
74178;DHT22;62540;48.456;-4.456;2024-03-06T01:39:18;8.44;70.48
74178;DHT22;62540;48.456;-4.456;2024-03-06T01:41:45;8.43;70.51
74178;DHT22;62540;48.456;-4.456;2024-03-06T01:44:11;8.38;70.42
74178;DHT22;62540;48.456;-4.456;2024-03-06T01:46:36;8.41;70.45
74178;DHT22;62540;48.456;-4.456;2024-03-06T01:49:02;8.37;70.60
74178;DHT22;62540;48.456;-4.456;2024-03-06T01:51:27;8.37;70.75
74178;DHT22;62540;48.456;-4.456;2024-03-06T01:53:53;8.36;70.83
74178;DHT22;62540;48.456;-4.456;2024-03-06T01:56:19;8.37;70.78
74178;DHT22;62540;48.456;-4.456;2024-03-06T01:58:48;8.40;70.77
74178;DHT22;62540;48.456;-4.456;2024-03-06T02:01:16;8.38;70.96
74178;DHT22;62540;48.456;-4.456;2024-03-06T02:03:42;8.34;71.04
74178;DHT22;62540;48.456;-4.456;2024-03-06T02:06:09;8.36;71.13
74178;DHT22;62540;48.456;-4.456;2024-03-06T02:08:36;8.34;71.56
74178;DHT22;62540;48.456;-4.456;2024-03-06T02:11:01;8.34;71.47
74178;DHT22;62540;48.456;-4.456;2024-03-06T02:13:29;8.40;71.40
74178;DHT22;62540;48.456;-4.456;2024-03-06T02:15:55;8.41;71.48
74178;DHT22;62540;48.456;-4.456;2024-03-06T02:18:20;8.40;71.62
74178;DHT22;62540;48.456;-4.456;2024-03-06T02:20:46;8.43;71.74
74178;DHT22;62540;48.456;-4.456;2024-03-06T02:23:12;8.43;71.79
74178;DHT22;62540;48.456;-4.456;2024-03-06T02:25:38;8.50;71.93
74178;DHT22;62540;48.456;-4.456;2024-03-06T02:28:04;8.50;72.21
74178;DHT22;62540;48.456;-4.456;2024-03-06T02:30:31;8.45;72.58
74178;DHT22;62540;48.456;-4.456;2024-03-06T02:33:02;8.48;72.49
74178;DHT22;62540;48.456;-4.456;2024-03-06T02:35:29;8.48;72.68
74178;DHT22;62540;48.456;-4.456;2024-03-06T02:37:54;8.48;73.26
74178;DHT22;62540;48.456;-4.456;2024-03-06T02:40:22;8.54;73.17
74178;DHT22;62540;48.456;-4.456;2024-03-06T02:42:47;8.60;73.01
74178;DHT22;62540;48.456;-4.456;2024-03-06T02:45:13;8.65;72.88
74178;DHT22;62540;48.456;-4.456;2024-03-06T02:47:39;8.69;72.90
74178;DHT22;62540;48.456;-4.456;2024-03-06T02:50:05;8.72;72.83
74178;DHT22;62540;48.456;-4.456;2024-03-06T02:52:30;8.75;73.11
74178;DHT22;62540;48.456;-4.456;2024-03-06T02:54:56;8.73;73.37
74178;DHT22;62540;48.456;-4.456;2024-03-06T02:57:22;8.75;73.32
74178;DHT22;62540;48.456;-4.456;2024-03-06T02:59:47;8.75;73.28
74178;DHT22;62540;48.456;-4.456;2024-03-06T03:02:14;8.79;73.21
74178;DHT22;62540;48.456;-4.456;2024-03-06T03:04:39;8.81;73.25
74178;DHT22;62540;48.456;-4.456;2024-03-06T03:07:04;8.82;73.39
74178;DHT22;62540;48.456;-4.456;2024-03-06T03:09:30;8.83;73.40
74178;DHT22;62540;48.456;-4.456;2024-03-06T03:11:56;8.89;73.38
74178;DHT22;62540;48.456;-4.456;2024-03-06T03:14:22;8.89;73.28
74178;DHT22;62540;48.456;-4.456;2024-03-06T03:16:47;8.92;73.57
74178;DHT22;62540;48.456;-4.456;2024-03-06T03:19:13;8.92;73.39
74178;DHT22;62540;48.456;-4.456;2024-03-06T03:21:43;8.89;73.82
74178;DHT22;62540;48.456;-4.456;2024-03-06T03:24:08;8.88;73.94
74178;DHT22;62540;48.456;-4.456;2024-03-06T03:26:34;8.89;74.12
74178;DHT22;62540;48.456;-4.456;2024-03-06T03:28:59;8.88;74.22
74178;DHT22;62540;48.456;-4.456;2024-03-06T03:31:24;8.82;74.90
74178;DHT22;62540;48.456;-4.456;2024-03-06T03:33:50;8.86;74.89
74178;DHT22;62540;48.456;-4.456;2024-03-06T03:36:15;8.81;74.59
74178;DHT22;62540;48.456;-4.456;2024-03-06T03:38:41;8.81;75.25
74178;DHT22;62540;48.456;-4.456;2024-03-06T03:41:12;8.83;74.87
74178;DHT22;62540;48.456;-4.456;2024-03-06T03:43:39;8.83;74.75
74178;DHT22;62540;48.456;-4.456;2024-03-06T03:46:04;8.86;75.28
74178;DHT22;62540;48.456;-4.456;2024-03-06T03:48:31;8.86;74.94
74178;DHT22;62540;48.456;-4.456;2024-03-06T03:50:56;8.83;75.55
74178;DHT22;62540;48.456;-4.456;2024-03-06T03:53:21;8.85;75.40
74178;DHT22;62540;48.456;-4.456;2024-03-06T03:55:47;8.88;75.23
74178;DHT22;62540;48.456;-4.456;2024-03-06T03:58:12;8.91;75.26
74178;DHT22;62540;48.456;-4.456;2024-03-06T04:00:38;8.95;75.29
74178;DHT22;62540;48.456;-4.456;2024-03-06T04:03:03;8.99;75.20
74178;DHT22;62540;48.456;-4.456;2024-03-06T04:05:29;8.99;75.01
74178;DHT22;62540;48.456;-4.456;2024-03-06T04:07:54;9.02;75.19
74178;DHT22;62540;48.456;-4.456;2024-03-06T04:10:20;9.05;75.36
74178;DHT22;62540;48.456;-4.456;2024-03-06T04:12:46;9.06;75.24
74178;DHT22;62540;48.456;-4.456;2024-03-06T04:15:11;9.08;75.14
74178;DHT22;62540;48.456;-4.456;2024-03-06T04:17:36;9.09;75.11
74178;DHT22;62540;48.456;-4.456;2024-03-06T04:20:02;9.12;75.25
74178;DHT22;62540;48.456;-4.456;2024-03-06T04:22:29;9.16;75.01
74178;DHT22;62540;48.456;-4.456;2024-03-06T04:24:54;9.16;75.39
74178;DHT22;62540;48.456;-4.456;2024-03-06T04:27:21;9.16;75.66
74178;DHT22;62540;48.456;-4.456;2024-03-06T04:29:46;9.16;75.41
74178;DHT22;62540;48.456;-4.456;2024-03-06T04:32:12;9.18;75.99
74178;DHT22;62540;48.456;-4.456;2024-03-06T04:34:37;9.19;76.04
74178;DHT22;62540;48.456;-4.456;2024-03-06T04:37:02;9.23;75.71
74178;DHT22;62540;48.456;-4.456;2024-03-06T04:39:28;9.16;76.41
74178;DHT22;62540;48.456;-4.456;2024-03-06T04:41:53;9.18;76.50
74178;DHT22;62540;48.456;-4.456;2024-03-06T04:44:19;9.23;76.30
74178;DHT22;62540;48.456;-4.456;2024-03-06T04:46:44;9.18;77.07
74178;DHT22;62540;48.456;-4.456;2024-03-06T04:49:09;9.18;76.69
74178;DHT22;62540;48.456;-4.456;2024-03-06T04:51:35;9.22;76.36
74178;DHT22;62540;48.456;-4.456;2024-03-06T04:54:00;9.23;76.33
74178;DHT22;62540;48.456;-4.456;2024-03-06T04:56:26;9.27;76.35
74178;DHT22;62540;48.456;-4.456;2024-03-06T04:58:52;9.23;77.33
74178;DHT22;62540;48.456;-4.456;2024-03-06T05:01:17;9.23;76.68
74178;DHT22;62540;48.456;-4.456;2024-03-06T05:03:43;9.26;76.77
74178;DHT22;62540;48.456;-4.456;2024-03-06T05:06:08;9.24;77.09
74178;DHT22;62540;48.456;-4.456;2024-03-06T05:08:33;9.26;76.75
74178;DHT22;62540;48.456;-4.456;2024-03-06T05:11:00;9.30;76.48
74178;DHT22;62540;48.456;-4.456;2024-03-06T05:13:26;9.34;76.37
74178;DHT22;62540;48.456;-4.456;2024-03-06T05:15:52;9.40;76.24
74178;DHT22;62540;48.456;-4.456;2024-03-06T05:18:19;9.40;76.30
74178;DHT22;62540;48.456;-4.456;2024-03-06T05:20:45;9.44;76.24
74178;DHT22;62540;48.456;-4.456;2024-03-06T05:23:11;9.43;76.83
74178;DHT22;62540;48.456;-4.456;2024-03-06T05:25:36;9.40;76.82
74178;DHT22;62540;48.456;-4.456;2024-03-06T05:28:01;9.41;76.97
74178;DHT22;62540;48.456;-4.456;2024-03-06T05:30:28;9.44;76.98
74178;DHT22;62540;48.456;-4.456;2024-03-06T05:32:54;9.47;76.74
74178;DHT22;62540;48.456;-4.456;2024-03-06T05:35:19;9.48;76.65
74178;DHT22;62540;48.456;-4.456;2024-03-06T05:37:44;9.51;76.61
74178;DHT22;62540;48.456;-4.456;2024-03-06T05:40:10;9.52;76.69
74178;DHT22;62540;48.456;-4.456;2024-03-06T05:42:36;9.57;76.57
74178;DHT22;62540;48.456;-4.456;2024-03-06T05:45:01;9.60;76.81
74178;DHT22;62540;48.456;-4.456;2024-03-06T05:47:32;9.62;76.73
74178;DHT22;62540;48.456;-4.456;2024-03-06T05:49:57;9.64;76.69
74178;DHT22;62540;48.456;-4.456;2024-03-06T05:52:22;9.61;76.80
74178;DHT22;62540;48.456;-4.456;2024-03-06T05:54:48;9.58;77.19
74178;DHT22;62540;48.456;-4.456;2024-03-06T05:57:13;9.61;77.09
74178;DHT22;62540;48.456;-4.456;2024-03-06T05:59:39;9.62;77.10
74178;DHT22;62540;48.456;-4.456;2024-03-06T06:02:05;9.65;77.14
74178;DHT22;62540;48.456;-4.456;2024-03-06T06:04:31;9.62;77.08
74178;DHT22;62540;48.456;-4.456;2024-03-06T06:06:56;9.62;77.42
74178;DHT22;62540;48.456;-4.456;2024-03-06T06:09:22;9.61;77.61
74178;DHT22;62540;48.456;-4.456;2024-03-06T06:11:47;9.61;77.72
74178;DHT22;62540;48.456;-4.456;2024-03-06T06:14:12;9.62;77.83
74178;DHT22;62540;48.456;-4.456;2024-03-06T06:16:38;9.57;78.10
74178;DHT22;62540;48.456;-4.456;2024-03-06T06:19:06;9.58;77.92
74178;DHT22;62540;48.456;-4.456;2024-03-06T06:21:32;9.64;77.71
74178;DHT22;62540;48.456;-4.456;2024-03-06T06:23:58;9.70;77.38
74178;DHT22;62540;48.456;-4.456;2024-03-06T06:26:23;9.75;77.27
74178;DHT22;62540;48.456;-4.456;2024-03-06T06:28:48;9.78;77.14
74178;DHT22;62540;48.456;-4.456;2024-03-06T06:31:14;9.81;77.28
74178;DHT22;62540;48.456;-4.456;2024-03-06T06:33:39;9.82;77.25
74178;DHT22;62540;48.456;-4.456;2024-03-06T06:36:05;9.81;77.31
74178;DHT22;62540;48.456;-4.456;2024-03-06T06:38:30;9.82;77.06
74178;DHT22;62540;48.456;-4.456;2024-03-06T06:40:56;9.82;77.21
74178;DHT22;62540;48.456;-4.456;2024-03-06T06:43:22;9.81;77.35
74178;DHT22;62540;48.456;-4.456;2024-03-06T06:45:48;9.77;77.73
74178;DHT22;62540;48.456;-4.456;2024-03-06T06:48:14;9.78;77.39
74178;DHT22;62540;48.456;-4.456;2024-03-06T06:50:39;9.81;77.36
74178;DHT22;62540;48.456;-4.456;2024-03-06T06:53:05;9.82;77.29
74178;DHT22;62540;48.456;-4.456;2024-03-06T06:55:30;9.82;77.36
74178;DHT22;62540;48.456;-4.456;2024-03-06T06:57:56;9.81;77.66
74178;DHT22;62540;48.456;-4.456;2024-03-06T07:00:21;9.79;77.67
74178;DHT22;62540;48.456;-4.456;2024-03-06T07:02:48;9.75;77.80
74178;DHT22;62540;48.456;-4.456;2024-03-06T07:05:14;9.71;78.07
74178;DHT22;62540;48.456;-4.456;2024-03-06T07:07:39;9.70;78.04
74178;DHT22;62540;48.456;-4.456;2024-03-06T07:10:05;9.74;77.98
74178;DHT22;62540;48.456;-4.456;2024-03-06T07:12:31;9.78;77.98
74178;DHT22;62540;48.456;-4.456;2024-03-06T07:14:57;9.81;77.71
74178;DHT22;62540;48.456;-4.456;2024-03-06T07:17:23;9.81;77.86
74178;DHT22;62540;48.456;-4.456;2024-03-06T07:19:48;9.84;77.74
74178;DHT22;62540;48.456;-4.456;2024-03-06T07:22:14;9.85;77.70
74178;DHT22;62540;48.456;-4.456;2024-03-06T07:24:40;9.91;77.69
74178;DHT22;62540;48.456;-4.456;2024-03-06T07:27:06;9.92;77.79
74178;DHT22;62540;48.456;-4.456;2024-03-06T07:29:34;9.92;77.69
74178;DHT22;62540;48.456;-4.456;2024-03-06T07:32:00;9.97;77.68
74178;DHT22;62540;48.456;-4.456;2024-03-06T07:34:25;9.98;77.76
74178;DHT22;62540;48.456;-4.456;2024-03-06T07:36:51;10.01;77.69
74178;DHT22;62540;48.456;-4.456;2024-03-06T07:39:16;10.03;77.72
74178;DHT22;62540;48.456;-4.456;2024-03-06T07:41:42;10.08;77.68
74178;DHT22;62540;48.456;-4.456;2024-03-06T07:44:08;10.10;77.76
74178;DHT22;62540;48.456;-4.456;2024-03-06T07:46:34;10.13;77.96
74178;DHT22;62540;48.456;-4.456;2024-03-06T07:49:00;10.12;77.98
74178;DHT22;62540;48.456;-4.456;2024-03-06T07:51:25;10.16;77.88
74178;DHT22;62540;48.456;-4.456;2024-03-06T07:53:51;10.18;78.01
74178;DHT22;62540;48.456;-4.456;2024-03-06T07:56:17;10.22;78.06
74178;DHT22;62540;48.456;-4.456;2024-03-06T07:58:43;10.29;78.18
74178;DHT22;62540;48.456;-4.456;2024-03-06T08:01:08;10.33;77.96
74178;DHT22;62540;48.456;-4.456;2024-03-06T08:03:34;10.42;77.99
74178;DHT22;62540;48.456;-4.456;2024-03-06T08:05:59;10.46;77.90
74178;DHT22;62540;48.456;-4.456;2024-03-06T08:08:25;10.60;77.96
74178;DHT22;62540;48.456;-4.456;2024-03-06T08:10:51;10.70;77.70
74178;DHT22;62540;48.456;-4.456;2024-03-06T08:13:16;10.64;77.69
74178;DHT22;62540;48.456;-4.456;2024-03-06T08:15:42;10.70;77.59
74178;DHT22;62540;48.456;-4.456;2024-03-06T08:18:09;10.70;77.58
74178;DHT22;62540;48.456;-4.456;2024-03-06T08:20:35;10.73;77.50
74178;DHT22;62540;48.456;-4.456;2024-03-06T08:23:00;10.81;77.47
74178;DHT22;62540;48.456;-4.456;2024-03-06T08:25:25;10.88;77.29
74178;DHT22;62540;48.456;-4.456;2024-03-06T08:27:51;10.94;77.11
74178;DHT22;62540;48.456;-4.456;2024-03-06T08:30:16;10.94;77.14
74178;DHT22;62540;48.456;-4.456;2024-03-06T08:32:42;10.95;77.14
74178;DHT22;62540;48.456;-4.456;2024-03-06T08:35:12;10.97;77.32
74178;DHT22;62540;48.456;-4.456;2024-03-06T08:37:39;10.97;77.24
74178;DHT22;62540;48.456;-4.456;2024-03-06T08:40:05;10.95;77.20
74178;DHT22;62540;48.456;-4.456;2024-03-06T08:42:32;11.00;77.21
74178;DHT22;62540;48.456;-4.456;2024-03-06T08:44:57;11.03;77.05
74178;DHT22;62540;48.456;-4.456;2024-03-06T08:47:23;11.11;77.04
74178;DHT22;62540;48.456;-4.456;2024-03-06T08:49:48;11.11;76.88
74178;DHT22;62540;48.456;-4.456;2024-03-06T08:52:14;11.12;76.75
74178;DHT22;62540;48.456;-4.456;2024-03-06T08:54:42;11.14;76.67
74178;DHT22;62540;48.456;-4.456;2024-03-06T08:57:08;11.12;76.74
74178;DHT22;62540;48.456;-4.456;2024-03-06T08:59:34;11.10;76.66
74178;DHT22;62540;48.456;-4.456;2024-03-06T09:02:12;11.12;76.64
74178;DHT22;62540;48.456;-4.456;2024-03-06T09:04:40;11.18;76.57
74178;DHT22;62540;48.456;-4.456;2024-03-06T09:07:05;11.12;76.69
74178;DHT22;62540;48.456;-4.456;2024-03-06T09:09:31;11.04;76.70
74178;DHT22;62540;48.456;-4.456;2024-03-06T09:11:59;11.01;76.81
74178;DHT22;62540;48.456;-4.456;2024-03-06T09:14:25;11.00;76.78
74178;DHT22;62540;48.456;-4.456;2024-03-06T09:16:50;11.00;76.84
74178;DHT22;62540;48.456;-4.456;2024-03-06T09:19:16;10.98;77.01
74178;DHT22;62540;48.456;-4.456;2024-03-06T09:21:41;10.95;77.30
74178;DHT22;62540;48.456;-4.456;2024-03-06T09:24:07;10.94;77.39
74178;DHT22;62540;48.456;-4.456;2024-03-06T09:26:32;10.93;77.36
74178;DHT22;62540;48.456;-4.456;2024-03-06T09:28:58;10.93;77.57
74178;DHT22;62540;48.456;-4.456;2024-03-06T09:31:23;10.94;77.70
74178;DHT22;62540;48.456;-4.456;2024-03-06T09:33:50;10.98;77.62
74178;DHT22;62540;48.456;-4.456;2024-03-06T09:36:16;11.08;77.56
74178;DHT22;62540;48.456;-4.456;2024-03-06T09:38:42;11.18;77.55
74178;DHT22;62540;48.456;-4.456;2024-03-06T09:41:08;11.29;77.53
74178;DHT22;62540;48.456;-4.456;2024-03-06T09:43:33;11.36;77.42
74178;DHT22;62540;48.456;-4.456;2024-03-06T09:45:59;11.39;77.62
74178;DHT22;62540;48.456;-4.456;2024-03-06T09:48:27;11.43;77.84
74178;DHT22;62540;48.456;-4.456;2024-03-06T09:51:00;11.51;77.85
74178;DHT22;62540;48.456;-4.456;2024-03-06T09:53:26;11.61;77.80
74178;DHT22;62540;48.456;-4.456;2024-03-06T09:55:52;11.73;77.78
74178;DHT22;62540;48.456;-4.456;2024-03-06T09:58:17;11.86;77.87
74178;DHT22;62540;48.456;-4.456;2024-03-06T10:00:44;11.95;77.72
74178;DHT22;62540;48.456;-4.456;2024-03-06T10:03:10;12.10;77.51
74178;DHT22;62540;48.456;-4.456;2024-03-06T10:05:37;12.20;77.43
74178;DHT22;62540;48.456;-4.456;2024-03-06T10:08:05;12.31;77.24
74178;DHT22;62540;48.456;-4.456;2024-03-06T10:10:31;12.42;77.26
74178;DHT22;62540;48.456;-4.456;2024-03-06T10:12:57;12.49;76.95
74178;DHT22;62540;48.456;-4.456;2024-03-06T10:15:22;12.53;76.73
74178;DHT22;62540;48.456;-4.456;2024-03-06T10:17:48;12.61;76.71
74178;DHT22;62540;48.456;-4.456;2024-03-06T10:20:20;12.93;76.74
74178;DHT22;62540;48.456;-4.456;2024-03-06T10:22:49;13.26;76.58
74178;DHT22;62540;48.456;-4.456;2024-03-06T10:25:14;13.50;75.32
74178;DHT22;62540;48.456;-4.456;2024-03-06T10:27:40;13.55;74.91
74178;DHT22;62540;48.456;-4.456;2024-03-06T10:30:06;13.65;74.51
74178;DHT22;62540;48.456;-4.456;2024-03-06T10:32:36;13.72;74.48
74178;DHT22;62540;48.456;-4.456;2024-03-06T10:35:01;13.90;74.63
74178;DHT22;62540;48.456;-4.456;2024-03-06T10:37:29;14.10;74.08
74178;DHT22;62540;48.456;-4.456;2024-03-06T10:39:54;14.16;73.46
74178;DHT22;62540;48.456;-4.456;2024-03-06T10:42:23;14.25;73.97
74178;DHT22;62540;48.456;-4.456;2024-03-06T10:44:52;14.37;73.26
74178;DHT22;62540;48.456;-4.456;2024-03-06T10:47:19;14.53;73.28
74178;DHT22;62540;48.456;-4.456;2024-03-06T10:49:45;14.83;73.76
74178;DHT22;62540;48.456;-4.456;2024-03-06T10:52:11;15.25;73.62
74178;DHT22;62540;48.456;-4.456;2024-03-06T10:54:38;15.53;72.76
74178;DHT22;62540;48.456;-4.456;2024-03-06T10:57:08;15.63;69.92
74178;DHT22;62540;48.456;-4.456;2024-03-06T10:59:35;15.69;69.70
74178;DHT22;62540;48.456;-4.456;2024-03-06T11:02:01;15.77;70.43
74178;DHT22;62540;48.456;-4.456;2024-03-06T11:04:30;15.80;70.44
74178;DHT22;62540;48.456;-4.456;2024-03-06T11:07:00;15.83;70.19
74178;DHT22;62540;48.456;-4.456;2024-03-06T11:09:27;15.87;69.45
74178;DHT22;62540;48.456;-4.456;2024-03-06T11:11:54;15.87;69.79
74178;DHT22;62540;48.456;-4.456;2024-03-06T11:14:24;15.83;68.75
74178;DHT22;62540;48.456;-4.456;2024-03-06T11:17:02;15.97;69.66
74178;DHT22;62540;48.456;-4.456;2024-03-06T11:19:32;16.00;70.11
74178;DHT22;62540;48.456;-4.456;2024-03-06T11:21:58;16.04;69.15
74178;DHT22;62540;48.456;-4.456;2024-03-06T11:24:32;15.98;68.56
74178;DHT22;62540;48.456;-4.456;2024-03-06T11:27:03;15.94;69.70
74178;DHT22;62540;48.456;-4.456;2024-03-06T11:30:02;15.96;69.60
74178;DHT22;62540;48.456;-4.456;2024-03-06T11:32:28;15.86;68.05
74178;DHT22;62540;48.456;-4.456;2024-03-06T11:34:53;15.79;69.38
74178;DHT22;62540;48.456;-4.456;2024-03-06T11:37:20;15.63;68.60
74178;DHT22;62540;48.456;-4.456;2024-03-06T11:39:47;15.53;69.52
74178;DHT22;62540;48.456;-4.456;2024-03-06T11:42:13;15.49;69.32
74178;DHT22;62540;48.456;-4.456;2024-03-06T11:44:53;15.36;69.61
74178;DHT22;62540;48.456;-4.456;2024-03-06T11:47:20;15.25;69.46
74178;DHT22;62540;48.456;-4.456;2024-03-06T11:49:45;15.11;69.85
74178;DHT22;62540;48.456;-4.456;2024-03-06T11:52:10;15.01;70.27
74178;DHT22;62540;48.456;-4.456;2024-03-06T11:54:37;14.97;70.79
74178;DHT22;62540;48.456;-4.456;2024-03-06T11:57:03;14.98;70.89
74178;DHT22;62540;48.456;-4.456;2024-03-06T11:59:30;15.18;71.18
74178;DHT22;62540;48.456;-4.456;2024-03-06T12:01:58;15.49;71.20
74178;DHT22;62540;48.456;-4.456;2024-03-06T12:04:24;15.79;70.73
74178;DHT22;62540;48.456;-4.456;2024-03-06T12:06:50;16.03;70.01
74178;DHT22;62540;48.456;-4.456;2024-03-06T12:09:16;16.17;69.69
74178;DHT22;62540;48.456;-4.456;2024-03-06T12:11:42;16.20;69.44
74178;DHT22;62540;48.456;-4.456;2024-03-06T12:14:15;16.17;68.68
74178;DHT22;62540;48.456;-4.456;2024-03-06T12:16:42;16.28;69.34
74178;DHT22;62540;48.456;-4.456;2024-03-06T12:19:07;16.33;68.32
74178;DHT22;62540;48.456;-4.456;2024-03-06T12:21:34;16.41;68.46
74178;DHT22;62540;48.456;-4.456;2024-03-06T12:24:09;16.40;68.28
74178;DHT22;62540;48.456;-4.456;2024-03-06T12:26:36;16.58;69.26
74178;DHT22;62540;48.456;-4.456;2024-03-06T12:29:09;16.83;68.56
74178;DHT22;62540;48.456;-4.456;2024-03-06T12:31:38;17.03;67.52
74178;DHT22;62540;48.456;-4.456;2024-03-06T12:34:05;17.16;66.62
74178;DHT22;62540;48.456;-4.456;2024-03-06T12:36:32;17.32;67.82
74178;DHT22;62540;48.456;-4.456;2024-03-06T12:39:02;17.31;66.34
74178;DHT22;62540;48.456;-4.456;2024-03-06T12:41:28;17.31;66.97
74178;DHT22;62540;48.456;-4.456;2024-03-06T12:43:54;17.41;66.61
74178;DHT22;62540;48.456;-4.456;2024-03-06T12:46:23;17.48;67.32
74178;DHT22;62540;48.456;-4.456;2024-03-06T12:48:49;17.54;66.11
74178;DHT22;62540;48.456;-4.456;2024-03-06T12:51:15;17.61;65.87
74178;DHT22;62540;48.456;-4.456;2024-03-06T12:53:41;17.69;66.23
74178;DHT22;62540;48.456;-4.456;2024-03-06T12:56:06;17.64;65.58
74178;DHT22;62540;48.456;-4.456;2024-03-06T12:58:32;17.67;65.74
74178;DHT22;62540;48.456;-4.456;2024-03-06T13:00:59;17.61;65.25
74178;DHT22;62540;48.456;-4.456;2024-03-06T13:03:25;17.42;64.34
74178;DHT22;62540;48.456;-4.456;2024-03-06T13:05:50;17.38;64.92
74178;DHT22;62540;48.456;-4.456;2024-03-06T13:08:16;17.48;65.38
74178;DHT22;62540;48.456;-4.456;2024-03-06T13:10:42;17.51;64.50
74178;DHT22;62540;48.456;-4.456;2024-03-06T13:13:07;17.77;65.18
74178;DHT22;62540;48.456;-4.456;2024-03-06T13:15:33;17.89;64.52
74178;DHT22;62540;48.456;-4.456;2024-03-06T13:18:05;17.93;64.68
74178;DHT22;62540;48.456;-4.456;2024-03-06T13:20:31;17.92;64.84
74178;DHT22;62540;48.456;-4.456;2024-03-06T13:22:57;17.88;64.12
74178;DHT22;62540;48.456;-4.456;2024-03-06T13:25:23;17.85;63.80
74178;DHT22;62540;48.456;-4.456;2024-03-06T13:27:49;17.83;64.57
74178;DHT22;62540;48.456;-4.456;2024-03-06T13:30:14;17.81;64.57
74178;DHT22;62540;48.456;-4.456;2024-03-06T13:32:40;17.72;64.23
74178;DHT22;62540;48.456;-4.456;2024-03-06T13:35:07;17.64;64.99
74178;DHT22;62540;48.456;-4.456;2024-03-06T13:37:37;17.58;64.65
74178;DHT22;62540;48.456;-4.456;2024-03-06T13:40:03;17.62;66.28
74178;DHT22;62540;48.456;-4.456;2024-03-06T13:42:32;17.79;65.83
74178;DHT22;62540;48.456;-4.456;2024-03-06T13:44:57;17.93;65.92
74178;DHT22;62540;48.456;-4.456;2024-03-06T13:47:23;18.14;65.04
74178;DHT22;62540;48.456;-4.456;2024-03-06T13:49:48;18.44;65.28
74178;DHT22;62540;48.456;-4.456;2024-03-06T13:52:14;18.43;62.46
74178;DHT22;62540;48.456;-4.456;2024-03-06T13:54:42;18.41;64.10
74178;DHT22;62540;48.456;-4.456;2024-03-06T13:57:08;18.33;63.00
74178;DHT22;62540;48.456;-4.456;2024-03-06T13:59:34;18.23;63.80
74178;DHT22;62540;48.456;-4.456;2024-03-06T14:02:00;18.23;63.72
74178;DHT22;62540;48.456;-4.456;2024-03-06T14:04:26;18.25;64.08
74178;DHT22;62540;48.456;-4.456;2024-03-06T14:06:52;18.13;62.95
74178;DHT22;62540;48.456;-4.456;2024-03-06T14:09:17;18.00;64.15
74178;DHT22;62540;48.456;-4.456;2024-03-06T14:11:43;18.03;63.61
74178;DHT22;62540;48.456;-4.456;2024-03-06T14:14:08;18.05;63.85
74178;DHT22;62540;48.456;-4.456;2024-03-06T14:16:34;18.13;64.84
74178;DHT22;62540;48.456;-4.456;2024-03-06T14:19:00;18.22;63.12
74178;DHT22;62540;48.456;-4.456;2024-03-06T14:21:25;18.29;63.23
74178;DHT22;62540;48.456;-4.456;2024-03-06T14:23:50;18.34;63.42
74178;DHT22;62540;48.456;-4.456;2024-03-06T14:26:16;18.33;61.97
74178;DHT22;62540;48.456;-4.456;2024-03-06T14:28:42;18.33;62.69
74178;DHT22;62540;48.456;-4.456;2024-03-06T14:31:07;18.27;62.45
74178;DHT22;62540;48.456;-4.456;2024-03-06T14:33:33;18.32;62.14
74178;DHT22;62540;48.456;-4.456;2024-03-06T14:35:59;18.32;62.17
74178;DHT22;62540;48.456;-4.456;2024-03-06T14:38:24;18.20;60.65
74178;DHT22;62540;48.456;-4.456;2024-03-06T14:40:50;18.13;61.74
74178;DHT22;62540;48.456;-4.456;2024-03-06T14:43:15;18.13;59.83
74178;DHT22;62540;48.456;-4.456;2024-03-06T14:45:42;18.06;61.25
74178;DHT22;62540;48.456;-4.456;2024-03-06T14:48:09;18.09;61.30
74178;DHT22;62540;48.456;-4.456;2024-03-06T14:50:35;18.14;61.10
74178;DHT22;62540;48.456;-4.456;2024-03-06T14:53:00;18.22;60.39
74178;DHT22;62540;48.456;-4.456;2024-03-06T14:55:26;18.25;60.66
74178;DHT22;62540;48.456;-4.456;2024-03-06T14:57:51;18.16;59.59
74178;DHT22;62540;48.456;-4.456;2024-03-06T15:00:17;18.09;59.75
74178;DHT22;62540;48.456;-4.456;2024-03-06T15:02:46;18.14;60.02
74178;DHT22;62540;48.456;-4.456;2024-03-06T15:05:11;18.22;60.41
74178;DHT22;62540;48.456;-4.456;2024-03-06T15:07:38;18.30;60.00
74178;DHT22;62540;48.456;-4.456;2024-03-06T15:10:06;18.27;59.00
74178;DHT22;62540;48.456;-4.456;2024-03-06T15:12:33;18.13;59.05
74178;DHT22;62540;48.456;-4.456;2024-03-06T15:14:59;18.13;59.89
74178;DHT22;62540;48.456;-4.456;2024-03-06T15:17:25;18.13;59.68